Time;durP1;ratioP1;P1;durP2;ratioP2;P2;SDS_P1;SDS_P2;PMS_P1;PMS_P2;Temp;Humidity;BMP_temperature;BMP_pressure;BME280_temperature;BME280_humidity;BME280_pressure;Samples;Min_cycle;Max_cycle;Signal;HPM_P1;HPM_P2
2022/03/16 00:00:02;;;;;;;14.57;9.37;;;4.50;99.90;;;;;;5018613;28;20942;-81
2022/03/16 00:02:30;;;;;;;11.63;9.27;;;5.10;99.90;;;;;;5018004;28;20455;-82
2022/03/16 00:08:01;;;;;;;16.50;9.20;;;4.60;99.90;;;;;;5017511;28;21084;-82
2022/03/16 00:10:36;;;;;;;11.17;9.20;;;4.50;99.90;;;;;;5018482;28;20463;-82
2022/03/16 00:13:05;;;;;;;11.53;8.77;;;4.40;99.90;;;;;;4999998;28;20563;-83
2022/03/16 00:15:32;;;;;;;14.20;8.60;;;4.40;99.90;;;;;;5018939;28;20474;-81
2022/03/16 00:18:02;;;;;;;13.50;9.20;;;4.70;99.90;;;;;;5000986;28;20468;-82
2022/03/16 00:20:29;;;;;;;12.70;9.63;;;3.60;99.90;;;;;;5018457;28;20490;-83
2022/03/16 00:22:56;;;;;;;12.87;8.87;;;4.40;99.90;;;;;;5018871;28;20897;-81
2022/03/16 00:25:26;;;;;;;16.03;9.93;;;4.30;99.90;;;;;;5018487;28;20477;-82
2022/03/16 00:27:58;;;;;;;19.60;9.03;;;5.30;99.90;;;;;;5018355;28;20479;-81
2022/03/16 00:30:27;;;;;;;10.80;7.33;;;4.50;99.90;;;;;;5018479;28;20533;-82
2022/03/16 00:32:53;;;;;;;10.70;8.00;;;3.80;99.90;;;;;;5018235;28;20482;-81
2022/03/16 00:35:20;;;;;;;9.43;8.00;;;4.90;99.90;;;;;;5018276;28;20473;-82
2022/03/16 00:37:47;;;;;;;12.43;8.60;;;4.20;99.90;;;;;;5018469;28;20536;-78
2022/03/16 00:40:14;;;;;;;10.77;8.70;;;5.10;99.90;;;;;;5018582;28;21042;-81
2022/03/16 00:42:41;;;;;;;12.10;8.10;;;4.20;99.90;;;;;;5018493;28;21005;-81
2022/03/16 00:45:09;;;;;;;11.63;8.10;;;4.40;99.90;;;;;;5018032;28;20482;-81
2022/03/16 00:47:37;;;;;;;12.77;7.77;;;4.10;99.90;;;;;;5018577;28;20481;-79
2022/03/16 00:50:04;;;;;;;11.10;8.00;;;4.40;99.90;;;;;;5017684;28;20816;-81
2022/03/16 00:52:31;;;;;;;10.17;7.70;;;4.10;99.90;;;;;;5019033;28;20549;-81
2022/03/16 00:54:58;;;;;;;13.30;8.57;;;5.20;99.90;;;;;;5017945;28;20473;-81
2022/03/16 00:57:25;;;;;;;10.07;8.43;;;4.70;99.90;;;;;;5017726;28;21139;-81
2022/03/16 00:59:51;;;;;;;11.33;8.20;;;4.10;99.90;;;;;;5016889;28;20985;-83
2022/03/16 01:02:18;;;;;;;10.70;8.17;;;5.00;99.90;;;;;;5017345;28;20546;-82
2022/03/16 01:04:46;;;;;;;13.33;7.53;;;4.70;99.90;;;;;;5017979;28;21021;-82
2022/03/16 01:07:13;;;;;;;12.07;7.17;;;4.10;99.90;;;;;;5018296;28;20463;-82
2022/03/16 01:09:40;;;;;;;12.23;6.63;;;4.20;99.90;;;;;;5018049;28;20474;-82
2022/03/16 01:12:09;;;;;;;10.93;7.30;;;4.80;99.90;;;;;;5018622;28;20565;-82
2022/03/16 01:14:36;;;;;;;10.10;7.13;;;4.10;99.90;;;;;;5017914;28;20509;-81
2022/03/16 01:17:03;;;;;;;11.33;7.83;;;4.10;99.90;;;;;;5018331;28;20454;-81
2022/03/16 01:19:31;;;;;;;11.80;8.23;;;4.10;99.90;;;;;;5017452;28;20461;-82
2022/03/16 01:22:02;;;;;;;8.77;6.97;;;4.00;99.90;;;;;;5017454;28;20480;-83
2022/03/16 01:24:29;;;;;;;10.20;8.23;;;4.00;99.90;;;;;;5016818;28;20458;-80
2022/03/16 01:26:57;;;;;;;17.10;7.73;;;4.00;99.90;;;;;;5017125;28;20846;-80
2022/03/16 01:29:25;;;;;;;12.50;8.83;;;3.90;99.90;;;;;;5016954;28;20569;-80
2022/03/16 01:31:53;;;;;;;13.43;8.70;;;3.90;99.90;;;;;;5016831;28;20490;-82
2022/03/16 01:34:20;;;;;;;11.70;8.80;;;3.90;99.90;;;;;;5017378;28;20465;-82
2022/03/16 01:36:48;;;;;;;16.03;9.60;;;3.90;99.90;;;;;;5016929;28;20509;-81
2022/03/16 01:39:21;;;;;;;14.83;8.57;;;3.90;99.90;;;;;;5017569;28;20508;-81
2022/03/16 01:41:48;;;;;;;10.93;7.17;;;3.90;99.90;;;;;;5017327;28;20450;-81
2022/03/16 01:44:15;;;;;;;11.97;9.50;;;3.90;99.90;;;;;;5015669;28;20482;-83
2022/03/16 01:46:42;;;;;;;14.20;8.87;;;3.80;99.90;;;;;;5017160;28;20473;-81
2022/03/16 01:49:08;;;;;;;14.63;7.53;;;3.80;99.90;;;;;;5017070;28;20507;-81
2022/03/16 01:51:36;;;;;;;12.60;9.87;;;3.80;99.90;;;;;;5017459;28;20465;-81
2022/03/16 01:54:03;;;;;;;13.67;9.20;;;3.80;99.90;;;;;;5018211;28;20458;-81
2022/03/16 01:56:31;;;;;;;16.43;9.27;;;3.80;99.90;;;;;;5017916;28;20463;-83
2022/03/16 01:58:58;;;;;;;12.03;8.80;;;3.80;99.90;;;;;;5016115;28;20973;-81
2022/03/16 02:01:25;;;;;;;15.40;10.43;;;3.70;99.90;;;;;;5018010;28;20466;-81
2022/03/16 02:03:52;;;;;;;14.43;9.60;;;3.70;99.90;;;;;;5017822;28;20460;-81
2022/03/16 02:06:19;;;;;;;12.13;9.40;;;3.70;99.90;;;;;;5017709;28;20477;-81
2022/03/16 02:08:46;;;;;;;13.80;8.23;;;3.70;99.90;;;;;;5018052;28;20515;-81
2022/03/16 02:11:14;;;;;;;12.70;8.90;;;3.60;99.90;;;;;;5017330;28;20533;-82
2022/03/16 02:13:42;;;;;;;11.37;8.63;;;3.60;99.90;;;;;;5018743;28;20439;-83
2022/03/16 02:16:12;;;;;;;12.93;9.23;;;3.60;99.90;;;;;;5018945;28;20556;-81
2022/03/16 02:18:49;;;;;;;13.83;9.20;;;3.60;99.90;;;;;;5000391;28;20454;-81
2022/03/16 02:21:17;;;;;;;14.23;8.77;;;3.50;99.90;;;;;;5018835;28;20445;-82
2022/03/16 02:23:45;;;;;;;11.80;9.10;;;3.50;99.90;;;;;;5018077;28;21001;-81
2022/03/16 02:26:12;;;;;;;12.93;9.33;;;3.50;99.90;;;;;;5018260;28;20477;-80
2022/03/16 02:28:39;;;;;;;12.00;8.23;;;3.40;99.90;;;;;;5018850;28;21125;-81
2022/03/16 02:31:06;;;;;;;13.90;9.50;;;3.50;99.90;;;;;;5017709;28;20462;-82
2022/03/16 02:33:33;;;;;;;15.60;9.47;;;3.60;99.90;;;;;;5017819;28;20525;-82
2022/03/16 02:36:00;;;;;;;11.43;8.47;;;3.60;99.90;;;;;;5017918;28;20469;-81
2022/03/16 02:38:26;;;;;;;11.70;9.03;;;3.60;99.90;;;;;;5018557;28;20536;-81
2022/03/16 02:40:55;;;;;;;13.00;9.67;;;3.60;99.90;;;;;;5017279;28;20468;-82
2022/03/16 02:43:23;;;;;;;15.70;9.80;;;3.60;99.90;;;;;;5018201;28;20457;-82
2022/03/16 02:45:50;;;;;;;15.40;9.50;;;3.60;99.90;;;;;;5018847;28;20440;-81
2022/03/16 02:48:16;;;;;;;12.80;9.00;;;3.60;99.90;;;;;;5017352;28;20458;-81
2022/03/16 02:50:43;;;;;;;14.10;10.37;;;3.60;99.90;;;;;;5016490;28;20449;-82
2022/03/16 02:53:10;;;;;;;15.97;9.90;;;3.60;99.90;;;;;;5017957;28;20881;-82
2022/03/16 02:55:37;;;;;;;12.00;9.43;;;3.60;99.90;;;;;;5017942;28;20493;-81
2022/03/16 02:58:07;;;;;;;11.53;9.40;;;3.60;99.90;;;;;;5017619;28;20461;-80
2022/03/16 03:00:34;;;;;;;13.83;10.37;;;3.60;99.90;;;;;;5017080;28;20452;-81
2022/03/16 03:03:01;;;;;;;21.83;11.07;;;3.60;99.90;;;;;;5017705;28;20488;-81
2022/03/16 03:05:28;;;;;;;16.23;11.23;;;3.60;99.90;;;;;;5018113;28;20485;-81
2022/03/16 03:07:55;;;;;;;14.37;9.87;;;3.60;99.90;;;;;;5017926;28;20973;-81
2022/03/16 03:10:22;;;;;;;18.60;12.47;;;3.60;99.90;;;;;;5018672;28;20448;-81
2022/03/16 03:12:48;;;;;;;17.90;10.83;;;3.60;99.90;;;;;;5017875;28;20454;-84
2022/03/16 03:15:17;;;;;;;19.70;11.83;;;3.60;99.90;;;;;;5017542;28;20474;-82
2022/03/16 03:17:44;;;;;;;17.50;11.23;;;3.60;99.90;;;;;;5017418;28;20462;-81
2022/03/16 03:20:12;;;;;;;16.40;11.03;;;3.60;99.90;;;;;;5017865;28;20989;-82
2022/03/16 03:22:39;;;;;;;17.07;11.10;;;3.60;99.90;;;;;;5017821;28;20453;-81
2022/03/16 03:25:10;;;;;;;17.37;10.50;;;3.60;99.90;;;;;;5017045;28;20474;-81
2022/03/16 03:27:36;;;;;;;18.77;11.33;;;3.60;99.90;;;;;;5017800;28;20942;-81
2022/03/16 03:30:05;;;;;;;14.83;11.00;;;3.60;99.90;;;;;;5017550;28;20590;-81
2022/03/16 03:32:33;;;;;;;16.83;11.50;;;3.50;99.90;;;;;;5018574;28;20464;-83
2022/03/16 03:34:59;;;;;;;19.77;11.73;;;3.60;99.90;;;;;;5016445;28;20466;-81
2022/03/16 03:37:28;;;;;;;14.90;11.20;;;3.50;99.90;;;;;;5017878;28;20457;-82
2022/03/16 03:39:55;;;;;;;14.43;9.93;;;3.50;99.90;;;;;;5017616;28;20453;-81
2022/03/16 03:42:22;;;;;;;17.00;10.07;;;3.50;99.90;;;;;;5017471;28;20489;-81
2022/03/16 03:44:49;;;;;;;13.80;11.10;;;3.50;99.90;;;;;;5020870;28;20500;-81
2022/03/16 03:47:15;;;;;;;12.87;10.77;;;3.50;99.90;;;;;;5021449;28;20449;-81
2022/03/16 03:49:44;;;;;;;16.27;10.13;;;3.50;99.90;;;;;;5020565;28;20485;-81
2022/03/16 03:52:11;;;;;;;16.30;10.67;;;3.50;99.90;;;;;;5021415;28;20449;-81
2022/03/16 03:54:40;;;;;;;13.60;10.20;;;3.40;99.90;;;;;;5020580;28;20543;-83
2022/03/16 03:57:07;;;;;;;15.27;10.17;;;3.40;99.90;;;;;;5020666;28;20530;-80
2022/03/16 03:59:34;;;;;;;15.27;10.00;;;3.40;99.90;;;;;;5020435;28;20449;-80
2022/03/16 04:02:01;;;;;;;15.90;10.37;;;3.40;99.90;;;;;;5020800;28;20806;-81
2022/03/16 04:04:28;;;;;;;13.50;10.10;;;3.40;99.90;;;;;;5019233;28;20468;-80
2022/03/16 04:06:56;;;;;;;14.73;9.60;;;3.40;99.90;;;;;;5020505;28;20450;-81
2022/03/16 04:09:23;;;;;;;13.70;9.47;;;3.30;99.90;;;;;;5020671;28;20501;-81
2022/03/16 04:11:49;;;;;;;18.63;9.50;;;3.30;99.90;;;;;;5021212;28;20458;-79
2022/03/16 04:14:17;;;;;;;17.43;10.43;;;3.30;99.90;;;;;;5021229;28;20482;-81
2022/03/16 04:16:43;;;;;;;16.53;9.80;;;3.30;99.90;;;;;;5021419;28;20500;-82
2022/03/16 04:19:10;;;;;;;16.70;10.20;;;3.20;99.90;;;;;;5020894;28;20458;-79
2022/03/16 04:21:37;;;;;;;13.10;9.50;;;3.20;99.90;;;;;;5020515;28;20553;-83
2022/03/16 04:24:06;;;;;;;13.70;9.00;;;3.20;99.90;;;;;;5019915;28;20457;-82
2022/03/16 04:26:34;;;;;;;12.50;9.60;;;3.10;99.90;;;;;;5020729;28;20480;-83
2022/03/16 04:29:00;;;;;;;12.50;9.17;;;3.10;99.90;;;;;;5020514;28;20486;-82
2022/03/16 04:31:27;;;;;;;12.23;8.73;;;3.10;99.90;;;;;;5023378;28;20457;-80
2022/03/16 04:33:55;;;;;;;13.27;9.23;;;3.10;99.90;;;;;;5019794;28;20966;-80
2022/03/16 04:36:22;;;;;;;13.80;10.47;;;3.00;99.90;;;;;;5020242;28;20500;-81
2022/03/16 04:38:50;;;;;;;10.87;8.10;;;3.00;99.90;;;;;;5019122;28;20540;-81
2022/03/16 04:41:18;;;;;;;12.53;8.67;;;3.00;99.90;;;;;;5018997;28;20532;-82
2022/03/16 04:43:45;;;;;;;12.20;8.90;;;3.10;99.90;;;;;;5018969;28;21062;-80
2022/03/16 04:46:12;;;;;;;12.60;9.40;;;3.10;99.90;;;;;;5019655;28;20481;-79
2022/03/16 04:48:38;;;;;;;15.70;8.73;;;3.00;99.90;;;;;;5019463;28;20532;-80
2022/03/16 04:51:06;;;;;;;11.77;8.40;;;3.00;99.90;;;;;;5019213;28;20452;-80
2022/03/16 04:53:33;;;;;;;14.13;8.40;;;3.00;99.90;;;;;;5019004;28;20496;-80
2022/03/16 04:55:59;;;;;;;10.53;8.30;;;3.00;99.90;;;;;;5019530;28;20476;-77
2022/03/16 04:58:28;;;;;;;11.50;7.73;;;3.00;99.90;;;;;;5020624;28;20525;-79
2022/03/16 05:00:54;;;;;;;11.90;8.90;;;3.00;99.90;;;;;;5021260;28;20485;-79
2022/03/16 05:03:21;;;;;;;14.13;9.00;;;3.00;99.90;;;;;;5018986;28;20483;-79
2022/03/16 05:05:48;;;;;;;10.70;8.40;;;3.00;99.90;;;;;;5021094;28;20480;-80
2022/03/16 05:08:15;;;;;;;12.17;9.43;;;3.00;99.90;;;;;;5021281;28;20537;-83
2022/03/16 05:10:42;;;;;;;12.30;9.17;;;3.00;99.90;;;;;;5019968;28;20500;-79
2022/03/16 05:13:08;;;;;;;11.37;7.50;;;3.00;99.90;;;;;;5019503;28;20957;-80
2022/03/16 05:15:37;;;;;;;10.20;7.40;;;3.00;99.90;;;;;;5019561;28;20480;-80
2022/03/16 05:18:04;;;;;;;11.53;8.20;;;3.00;99.90;;;;;;5019884;28;20544;-81
2022/03/16 05:20:31;;;;;;;10.80;8.00;;;3.00;99.90;;;;;;5019784;28;20452;-81
2022/03/16 05:22:57;;;;;;;20.43;9.30;;;2.90;99.90;;;;;;5018732;28;20525;-81
2022/03/16 05:25:26;;;;;;;13.93;8.50;;;2.90;99.90;;;;;;5019437;28;20517;-82
2022/03/16 05:27:53;;;;;;;14.17;8.77;;;2.90;99.90;;;;;;5019610;28;20472;-82
2022/03/16 05:30:22;;;;;;;11.57;8.87;;;2.90;99.90;;;;;;5019613;28;20488;-81
2022/03/16 05:32:52;;;;;;;12.83;8.90;;;2.90;99.90;;;;;;5019730;28;20449;-80
2022/03/16 05:35:19;;;;;;;12.60;8.17;;;2.90;99.90;;;;;;5018949;28;20831;-81
2022/03/16 05:37:46;;;;;;;17.40;9.10;;;2.80;99.90;;;;;;5019592;28;20453;-81
2022/03/16 05:40:13;;;;;;;12.67;9.17;;;2.80;99.90;;;;;;5019516;28;20453;-81
2022/03/16 05:42:40;;;;;;;14.40;8.73;;;2.80;99.90;;;;;;5019608;28;20458;-82
2022/03/16 05:45:08;;;;;;;12.23;8.00;;;2.80;99.90;;;;;;5018201;28;20466;-81
2022/03/16 05:47:35;;;;;;;15.73;10.43;;;2.80;99.90;;;;;;5017395;28;20454;-80
2022/03/16 05:50:05;;;;;;;11.30;8.07;;;2.80;99.90;;;;;;5017883;28;20230;-79
2022/03/16 05:52:33;;;;;;;12.50;9.43;;;2.90;99.90;;;;;;5018842;28;20550;-81
2022/03/16 05:55:01;;;;;;;16.77;9.93;;;2.90;99.90;;;;;;5018249;28;20469;-81
2022/03/16 05:57:28;;;;;;;15.40;9.20;;;2.90;99.90;;;;;;5018694;28;20458;-82
2022/03/16 05:59:55;;;;;;;15.70;10.93;;;2.80;99.90;;;;;;5016215;28;20468;-81
2022/03/16 06:02:21;;;;;;;15.33;9.93;;;2.80;99.90;;;;;;5017727;28;20452;-83
2022/03/16 06:04:48;;;;;;;16.70;10.73;;;2.90;99.90;;;;;;5017569;28;20864;-82
2022/03/16 06:07:16;;;;;;;14.90;9.20;;;2.90;99.90;;;;;;5017381;28;20454;-81
2022/03/16 06:09:44;;;;;;;19.97;10.77;;;2.90;99.90;;;;;;5023637;28;20500;-80
2022/03/16 06:12:11;;;;;;;16.40;9.60;;;3.00;99.90;;;;;;5021567;28;20529;-80
2022/03/16 06:14:38;;;;;;;13.73;10.13;;;3.00;99.90;;;;;;5024215;28;20446;-82
2022/03/16 06:17:05;;;;;;;14.00;9.60;;;3.00;99.90;;;;;;5027004;28;20503;-80
2022/03/16 06:19:32;;;;;;;14.37;9.73;;;3.20;99.90;;;;;;5028412;28;20536;-83
2022/03/16 06:21:59;;;;;;;15.33;9.47;;;3.20;99.90;;;;;;5028714;28;20484;-80
2022/03/16 06:24:27;;;;;;;14.20;9.70;;;3.20;99.90;;;;;;5028401;28;20449;-83
2022/03/16 06:26:54;;;;;;;14.93;9.63;;;3.30;99.90;;;;;;5027715;28;20450;-83
2022/03/16 06:29:21;;;;;;;16.80;10.30;;;3.50;99.90;;;;;;5024864;28;20549;-83
2022/03/16 06:31:47;;;;;;;12.30;8.73;;;3.50;99.90;;;;;;5025991;28;20449;-79
2022/03/16 06:34:14;;;;;;;15.57;10.57;;;3.60;99.90;;;;;;5026140;28;20545;-80
2022/03/16 06:36:41;;;;;;;15.40;9.63;;;3.70;99.90;;;;;;5026307;28;20470;-81
2022/03/16 06:39:08;;;;;;;16.60;10.43;;;3.90;99.90;;;;;;5028036;28;20450;-81
2022/03/16 06:41:36;;;;;;;15.60;9.97;;;3.90;99.90;;;;;;5024775;28;20819;-81
2022/03/16 06:44:03;;;;;;;15.30;9.67;;;4.00;99.90;;;;;;5018826;28;20476;-82
2022/03/16 06:46:30;;;;;;;16.20;9.97;;;4.20;99.90;;;;;;5019190;28;20522;-83
2022/03/16 06:48:57;;;;;;;15.37;10.70;;;4.30;99.90;;;;;;5018760;28;20885;-82
2022/03/16 06:51:23;;;;;;;12.27;8.90;;;4.40;99.90;;;;;;5029350;28;20833;-84
2022/03/16 06:53:50;;;;;;;13.30;10.00;;;4.50;99.90;;;;;;5031315;28;20469;-83
2022/03/16 06:56:17;;;;;;;17.97;11.23;;;4.60;99.90;;;;;;5030152;28;20501;-83
2022/03/16 06:58:45;;;;;;;14.00;10.73;;;4.90;99.90;;;;;;5028322;28;20876;-79
2022/03/16 07:01:13;;;;;;;15.90;10.30;;;4.70;99.90;;;;;;5019485;28;20447;-82
2022/03/16 07:03:39;;;;;;;18.80;9.67;;;4.80;99.90;;;;;;5027775;28;20471;-83
2022/03/16 07:06:08;;;;;;;17.10;10.33;;;4.80;99.90;;;;;;5033171;28;20477;-83
2022/03/16 07:08:35;;;;;;;17.40;10.57;;;4.80;99.90;;;;;;5033216;28;20494;-82
2022/03/16 07:11:03;;;;;;;14.80;10.43;;;4.90;99.90;;;;;;5030655;28;20477;-82
2022/03/16 07:13:29;;;;;;;18.87;11.10;;;4.90;99.90;;;;;;5029541;28;20469;-80
2022/03/16 07:15:58;;;;;;;17.50;11.43;;;4.90;99.90;;;;;;5026436;28;20541;-82
2022/03/16 07:18:25;;;;;;;15.30;12.00;;;5.00;99.90;;;;;;5033635;28;20464;-83
2022/03/16 07:20:52;;;;;;;20.10;13.73;;;5.10;99.90;;;;;;5029937;28;20489;-82
2022/03/16 07:23:19;;;;;;;16.80;11.67;;;5.20;99.90;;;;;;5034716;28;20516;-81
2022/03/16 07:25:49;;;;;;;15.23;10.40;;;5.30;99.90;;;;;;5036033;28;20466;-81
2022/03/16 07:28:16;;;;;;;18.80;10.93;;;5.40;99.90;;;;;;5036498;28;20478;-81
2022/03/16 07:30:44;;;;;;;17.50;10.80;;;5.40;99.90;;;;;;5039496;28;20486;-82
2022/03/16 07:33:14;;;;;;;15.00;10.27;;;5.50;99.90;;;;;;5028503;28;20484;-81
2022/03/16 07:35:41;;;;;;;16.63;11.00;;;5.70;99.90;;;;;;5024264;28;20477;-83
2022/03/16 07:38:08;;;;;;;13.50;10.07;;;5.70;99.90;;;;;;5026679;28;20540;-82
2022/03/16 07:40:39;;;;;;;17.53;10.70;;;5.80;99.90;;;;;;5026449;28;20465;-80
2022/03/16 07:43:07;;;;;;;15.20;9.90;;;5.90;99.90;;;;;;5029891;28;20480;-82
2022/03/16 07:45:35;;;;;;;16.80;10.70;;;6.00;99.90;;;;;;5029041;28;20473;-83
2022/03/16 07:48:02;;;;;;;18.13;10.50;;;6.10;99.90;;;;;;5032648;28;20475;-83
2022/03/16 07:50:34;;;;;;;14.53;10.20;;;6.30;99.90;;;;;;5025213;28;20473;-83
2022/03/16 07:53:01;;;;;;;15.80;10.33;;;6.40;99.90;;;;;;5027695;28;20539;-82
2022/03/16 07:55:29;;;;;;;13.43;10.23;;;6.60;99.90;;;;;;5020155;28;20461;-83
2022/03/16 07:58:02;;;;;;;14.20;10.70;;;6.60;99.90;;;;;;5029366;28;20458;-82
2022/03/16 08:00:31;;;;;;;15.17;10.20;;;6.80;99.90;;;;;;5029182;28;20457;-82
2022/03/16 08:03:01;;;;;;;14.50;10.47;;;6.90;99.90;;;;;;5029403;28;20494;-83
2022/03/16 08:05:33;;;;;;;13.70;9.73;;;7.20;99.90;;;;;;5023605;28;20513;-82
2022/03/16 08:08:00;;;;;;;13.40;9.80;;;7.70;99.90;;;;;;5026957;28;20460;-81
2022/03/16 08:10:28;;;;;;;15.07;9.63;;;8.10;99.90;;;;;;5024151;28;20482;-82
2022/03/16 08:12:55;;;;;;;13.63;9.77;;;8.40;99.90;;;;;;5030507;28;20446;-83
2022/03/16 08:15:23;;;;;;;11.53;8.80;;;8.80;99.90;;;;;;5025832;28;20478;-82
2022/03/16 08:17:50;;;;;;;12.27;9.40;;;9.00;99.90;;;;;;5029088;28;20505;-83
2022/03/16 08:20:18;;;;;;;12.47;8.50;;;9.30;99.90;;;;;;5028162;28;20453;-82
2022/03/16 08:22:46;;;;;;;11.40;9.13;;;10.10;99.90;;;;;;5039862;28;20495;-81
2022/03/16 08:25:15;;;;;;;12.53;8.50;;;10.40;99.90;;;;;;5040064;28;21016;-81
2022/03/16 08:27:43;;;;;;;11.97;8.30;;;10.70;99.90;;;;;;5031816;28;20466;-83
2022/03/16 08:30:11;;;;;;;11.30;8.53;;;10.70;99.90;;;;;;5032216;28;21054;-83
2022/03/16 08:32:39;;;;;;;13.60;9.20;;;11.20;99.90;;;;;;5035270;28;20441;-83
2022/03/16 08:35:06;;;;;;;12.27;8.73;;;11.40;99.90;;;;;;5031193;28;20519;-83
2022/03/16 08:37:33;;;;;;;10.57;7.63;;;11.70;99.90;;;;;;5032523;28;20485;-83
2022/03/16 08:40:03;;;;;;;12.10;8.33;;;12.60;99.90;;;;;;5029333;28;20527;-82
2022/03/16 08:42:30;;;;;;;11.77;8.07;;;13.70;99.90;;;;;;5028254;28;20468;-82
2022/03/16 08:44:57;;;;;;;9.70;6.33;;;14.40;99.90;;;;;;5024428;28;20491;-83
2022/03/16 08:47:24;;;;;;;10.73;7.87;;;15.30;99.90;;;;;;5030078;28;20462;-82
2022/03/16 08:49:55;;;;;;;11.23;8.17;;;15.20;99.90;;;;;;5026925;28;20516;-82
2022/03/16 08:52:23;;;;;;;8.43;7.00;;;15.30;99.90;;;;;;5024886;28;20448;-82
2022/03/16 08:54:50;;;;;;;10.17;7.17;;;15.50;99.90;;;;;;5025905;28;20548;-81
2022/03/16 08:57:22;;;;;;;10.60;7.70;;;15.50;99.90;;;;;;5023781;28;21023;-81
2022/03/16 09:00:06;;;;;;;13.30;8.83;;;15.70;99.90;;;;;;5025738;28;20494;-80
2022/03/16 09:02:33;;;;;;;8.83;7.00;;;16.40;99.90;;;;;;5011628;28;20475;-82
2022/03/16 09:05:00;;;;;;;10.57;7.40;;;17.60;99.90;;;;;;5023777;28;20481;-81
2022/03/16 09:07:27;;;;;;;9.10;7.27;;;18.20;99.90;;;;;;5023430;28;20452;-82
2022/03/16 09:09:54;;;;;;;10.47;7.60;;;18.40;96.30;;;;;;5022410;28;21791;-82
2022/03/16 09:12:24;;;;;;;9.10;6.40;;;18.60;96.30;;;;;;5027167;28;20480;-83
2022/03/16 09:14:53;;;;;;;9.80;7.20;;;19.50;94.00;;;;;;5027104;28;20569;-83
2022/03/16 09:17:20;;;;;;;9.80;7.33;;;19.20;91.40;;;;;;5022671;28;20454;-84
2022/03/16 09:19:48;;;;;;;9.40;7.33;;;20.00;89.20;;;;;;5029229;28;20518;-82
2022/03/16 09:22:15;;;;;;;10.87;7.97;;;20.30;85.60;;;;;;5025725;28;20464;-83
2022/03/16 09:24:43;;;;;;;8.40;7.23;;;20.30;81.60;;;;;;5029297;28;20962;-82
2022/03/16 09:27:09;;;;;;;9.07;6.77;;;20.40;81.10;;;;;;5019186;28;20561;-81
2022/03/16 09:29:38;;;;;;;10.47;8.20;;;20.00;77.70;;;;;;5017330;28;20483;-79
2022/03/16 09:32:10;;;;;;;7.17;6.43;;;20.00;77.20;;;;;;5013340;28;20589;-80
2022/03/16 09:34:37;;;;;;;8.70;7.07;;;19.50;75.60;;;;;;5025919;28;20448;-80
2022/03/16 09:37:04;;;;;;;8.50;6.20;;;19.20;76.60;;;;;;5023730;28;20463;-81
2022/03/16 09:39:31;;;;;;;8.57;7.43;;;18.60;79.10;;;;;;5028933;28;20462;-80
2022/03/16 09:41:59;;;;;;;8.53;7.10;;;18.20;78.70;;;;;;5024771;28;20489;-80
2022/03/16 09:44:28;;;;;;;7.97;7.10;;;17.70;80.00;;;;;;5026793;28;20442;-80
2022/03/16 09:46:57;;;;;;;9.77;7.93;;;17.30;84.80;;;;;;5014964;28;20457;-80
2022/03/16 09:49:26;;;;;;;9.97;6.93;;;17.60;83.60;;;;;;5028239;28;20457;-81
2022/03/16 09:51:56;;;;;;;11.23;7.73;;;18.10;86.60;;;;;;5028271;28;20508;-81
2022/03/16 09:54:23;;;;;;;8.60;7.10;;;18.00;83.90;;;;;;5025528;28;20465;-80
2022/03/16 09:56:50;;;;;;;10.03;7.50;;;18.20;85.00;;;;;;5022634;28;20471;-80
2022/03/16 09:59:17;;;;;;;8.93;7.50;;;18.50;80.90;;;;;;5022708;28;20512;-81
2022/03/16 10:01:44;;;;;;;8.47;6.93;;;18.70;81.30;;;;;;5016230;28;20976;-82
2022/03/16 10:04:13;;;;;;;9.20;7.97;;;19.40;80.80;;;;;;5017948;28;20468;-82
2022/03/16 10:06:42;;;;;;;7.23;6.27;;;20.30;75.30;;;;;;5021598;28;20894;-81
2022/03/16 10:15:02;;;;;;;6.40;5.40;;;21.30;71.40;;;;;;5009428;28;20469;-82
2022/03/16 10:17:44;;;;;;;8.13;6.13;;;22.70;68.70;;;;;;5002585;28;20458;-83
2022/03/16 10:20:21;;;;;;;8.40;6.13;;;22.80;63.80;;;;;;5005328;28;20530;-82
2022/03/16 10:23:03;;;;;;;6.77;5.70;;;23.70;63.70;;;;;;5004436;28;20458;-83
2022/03/16 10:25:32;;;;;;;7.50;6.73;;;25.40;62.70;;;;;;5020439;28;20477;-84
2022/03/16 10:28:11;;;;;;;7.27;6.20;;;25.70;57.80;;;;;;5023498;28;20442;-83
2022/03/16 10:30:55;;;;;;;6.83;5.53;;;26.10;55.00;;;;;;5024141;28;20481;-83
2022/03/16 10:33:23;;;;;;;7.37;6.40;;;26.40;53.50;;;;;;5024650;28;20460;-83
2022/03/16 10:36:04;;;;;;;5.53;4.90;;;26.40;52.80;;;;;;5023195;28;20458;-82
2022/03/16 10:38:36;;;;;;;7.80;7.10;;;26.80;53.80;;;;;;5007296;28;20497;-82
2022/03/16 10:46:34;;;;;;;7.40;6.60;;;26.80;51.50;;;;;;5034324;28;20445;-82
2022/03/16 10:46:52;;;;;;;8.63;7.40;;;26.80;51.30;;;;;;5019432;28;20488;-81
2022/03/16 10:49:22;;;;;;;7.17;6.40;;;27.30;50.90;;;;;;5023180;28;20489;-81
2022/03/16 10:52:02;;;;;;;9.00;6.73;;;28.00;50.70;;;;;;5023291;28;20576;-81
2022/03/16 10:54:34;;;;;;;7.87;7.00;;;27.00;51.20;;;;;;5030211;28;20468;-81
2022/03/16 10:57:02;;;;;;;8.23;7.43;;;27.50;51.80;;;;;;5030644;28;20520;-81
2022/03/16 10:59:31;;;;;;;8.10;7.30;;;26.80;49.30;;;;;;5029309;28;20972;-81
2022/03/16 11:02:03;;;;;;;8.70;6.87;;;26.50;48.50;;;;;;5029307;28;20584;-81
2022/03/16 11:04:34;;;;;;;7.30;6.60;;;25.60;49.90;;;;;;5030015;28;20557;-81
2022/03/16 11:07:04;;;;;;;7.47;6.73;;;26.30;50.70;;;;;;5023746;28;20957;-81
2022/03/16 11:09:32;;;;;;;8.40;7.60;;;27.50;50.50;;;;;;5026878;28;20507;-81
2022/03/16 11:14:47;;;;;;;8.67;6.90;;;26.70;49.40;;;;;;5017687;28;20529;-82
2022/03/16 11:17:15;;;;;;;7.23;6.53;;;26.90;50.10;;;;;;5030110;28;20486;-81
2022/03/16 11:19:44;;;;;;;7.97;7.17;;;27.30;49.10;;;;;;5014073;28;20482;-81
2022/03/16 11:22:16;;;;;;;8.40;7.50;;;27.20;49.70;;;;;;5028386;28;20528;-81
2022/03/16 11:24:50;;;;;;;8.50;7.67;;;28.40;49.40;;;;;;5026155;28;20914;-81
2022/03/16 11:27:26;;;;;;;8.23;7.10;;;29.00;48.20;;;;;;5027175;28;20445;-81
2022/03/16 11:30:18;;;;;;;7.47;6.77;;;28.60;46.70;;;;;;5028576;28;20457;-81
2022/03/16 11:32:47;;;;;;;5.00;4.50;;;28.10;47.80;;;;;;5023060;28;20449;-81
2022/03/16 11:35:15;;;;;;;8.17;6.10;;;29.80;48.10;;;;;;5024346;28;20493;-81
2022/03/16 11:37:47;;;;;;;7.10;4.77;;;30.30;46.10;;;;;;5022159;28;20508;-81
2022/03/16 11:40:16;;;;;;;6.53;5.93;;;30.40;44.20;;;;;;5036592;28;20481;-81
2022/03/16 11:43:16;;;;;;;7.00;6.30;;;29.40;44.70;;;;;;5009682;28;20482;-82
2022/03/16 11:45:47;;;;;;;6.70;6.00;;;30.10;44.30;;;;;;5022090;28;20477;-81
2022/03/16 11:48:40;;;;;;;6.47;5.87;;;31.00;44.80;;;;;;5028374;28;20442;-82
2022/03/16 11:51:20;;;;;;;6.10;5.60;;;30.20;41.80;;;;;;5027885;28;20457;-82
2022/03/16 11:54:11;;;;;;;6.90;6.30;;;30.50;42.90;;;;;;5028766;28;20441;-82
2022/03/16 11:56:53;;;;;;;7.23;6.53;;;30.20;43.80;;;;;;5032484;28;20479;-81
2022/03/16 12:00:03;;;;;;;7.43;6.10;;;30.20;43.90;;;;;;5026075;28;20511;-83
2022/03/16 12:02:55;;;;;;;6.20;5.60;;;29.70;42.90;;;;;;4958314;28;20502;-82
2022/03/16 12:05:22;;;;;;;7.30;6.23;;;30.70;43.10;;;;;;5103789;23;20521;-82
2022/03/16 12:08:12;;;;;;;6.87;6.20;;;29.90;42.40;;;;;;5020694;28;20447;-82
2022/03/16 12:12:50;;;;;;;6.83;6.17;;;30.20;42.50;;;;;;5023021;28;20503;-82
2022/03/16 12:14:07;;;;;;;7.20;6.50;;;29.90;42.80;;;;;;5024818;28;20433;-83
2022/03/16 12:16:44;;;;;;;7.60;6.80;;;30.90;41.90;;;;;;5006194;28;20487;-83
2022/03/16 12:19:30;;;;;;;6.18;5.57;;;31.20;41.10;;;;;;5013911;28;20468;-81
2022/03/16 12:21:58;;;;;;;8.23;6.93;;;29.20;42.50;;;;;;5011078;28;20223;-83
2022/03/16 12:30:21;;;;;;;6.83;6.13;;;26.90;46.00;;;;;;4998951;28;20505;-82
2022/03/16 12:32:48;;;;;;;6.90;5.97;;;27.10;44.90;;;;;;5012329;28;20456;-81
2022/03/16 12:35:15;;;;;;;6.63;6.03;;;25.50;45.30;;;;;;5016326;28;20481;-83
2022/03/16 12:37:49;;;;;;;7.40;6.00;;;26.60;46.60;;;;;;5006515;28;20463;-82
2022/03/16 12:40:20;;;;;;;7.17;6.57;;;28.10;45.30;;;;;;5003237;28;20450;-81
2022/03/16 12:42:53;;;;;;;5.00;4.50;;;29.50;44.90;;;;;;5001967;28;20513;-82
2022/03/16 12:45:25;;;;;;;6.43;5.87;;;29.70;44.50;;;;;;4999198;28;20503;-83
2022/03/16 12:48:04;;;;;;;6.90;6.20;;;30.00;42.30;;;;;;5002215;28;21308;-82
2022/03/16 12:50:31;;;;;;;6.60;6.00;;;30.90;42.00;;;;;;5002659;28;20447;-84
2022/03/16 12:52:58;;;;;;;7.27;6.27;;;31.70;42.80;;;;;;5004040;28;20461;-82
2022/03/16 12:55:25;;;;;;;7.43;6.60;;;32.60;41.80;;;;;;5007731;28;20473;-82
2022/03/16 12:57:56;;;;;;;8.23;6.80;;;31.80;40.40;;;;;;5007363;28;20514;-82
2022/03/16 13:00:30;;;;;;;7.33;6.63;;;29.50;40.90;;;;;;5008165;28;20953;-83
2022/03/16 13:03:12;;;;;;;6.33;5.73;;;29.10;41.80;;;;;;5006124;28;20467;-82
2022/03/16 13:05:39;;;;;;;7.30;6.60;;;29.10;43.40;;;;;;5006506;28;20540;-82
2022/03/16 13:08:07;;;;;;;8.00;7.30;;;29.30;42.80;;;;;;5005856;28;20486;-82
2022/03/16 13:11:14;;;;;;;6.40;5.80;;;29.20;42.50;;;;;;5009742;28;20523;-82
2022/03/16 13:13:23;;;;;;;6.03;5.43;;;30.60;43.30;;;;;;5009141;28;20458;-84